sensor_id;sensor_type;location;lat;lon;timestamp;P1;durP1;ratioP1;P2;durP2;ratioP2
71475;SDS011;59286;59.274;17.974;2023-08-12T00:01:02;6.18;;;1.80;;
71475;SDS011;59286;59.274;17.974;2023-08-12T00:03:28;4.50;;;2.10;;
71475;SDS011;59286;59.274;17.974;2023-08-12T00:05:53;4.72;;;1.80;;
71475;SDS011;59286;59.274;17.974;2023-08-12T00:08:19;6.25;;;2.00;;
71475;SDS011;59286;59.274;17.974;2023-08-12T00:10:44;8.32;;;2.08;;
71475;SDS011;59286;59.274;17.974;2023-08-12T00:13:10;7.18;;;2.22;;
71475;SDS011;59286;59.274;17.974;2023-08-12T00:15:35;5.57;;;2.15;;
71475;SDS011;59286;59.274;17.974;2023-08-12T00:18:01;4.03;;;1.73;;
71475;SDS011;59286;59.274;17.974;2023-08-12T00:20:29;9.70;;;2.55;;
71475;SDS011;59286;59.274;17.974;2023-08-12T00:22:54;7.75;;;2.88;;
71475;SDS011;59286;59.274;17.974;2023-08-12T00:25:20;7.30;;;2.70;;
71475;SDS011;59286;59.274;17.974;2023-08-12T00:27:45;8.80;;;2.10;;
71475;SDS011;59286;59.274;17.974;2023-08-12T00:30:10;6.95;;;2.38;;
71475;SDS011;59286;59.274;17.974;2023-08-12T00:32:36;9.95;;;2.80;;
71475;SDS011;59286;59.274;17.974;2023-08-12T00:35:02;7.78;;;2.70;;
71475;SDS011;59286;59.274;17.974;2023-08-12T00:37:28;7.78;;;2.13;;
71475;SDS011;59286;59.274;17.974;2023-08-12T00:39:53;7.35;;;2.05;;
71475;SDS011;59286;59.274;17.974;2023-08-12T00:42:18;6.70;;;2.53;;
71475;SDS011;59286;59.274;17.974;2023-08-12T00:44:44;12.20;;;3.30;;
71475;SDS011;59286;59.274;17.974;2023-08-12T00:47:09;13.40;;;3.63;;
71475;SDS011;59286;59.274;17.974;2023-08-12T00:49:34;9.40;;;2.80;;
71475;SDS011;59286;59.274;17.974;2023-08-12T00:52:01;10.52;;;3.70;;
71475;SDS011;59286;59.274;17.974;2023-08-12T00:54:27;14.70;;;3.92;;
71475;SDS011;59286;59.274;17.974;2023-08-12T00:56:53;12.63;;;3.05;;
71475;SDS011;59286;59.274;17.974;2023-08-12T00:59:19;9.55;;;3.38;;
71475;SDS011;59286;59.274;17.974;2023-08-12T01:01:45;10.52;;;3.72;;
71475;SDS011;59286;59.274;17.974;2023-08-12T01:04:12;6.05;;;2.70;;
71475;SDS011;59286;59.274;17.974;2023-08-12T01:06:37;6.45;;;3.15;;
71475;SDS011;59286;59.274;17.974;2023-08-12T01:09:03;9.25;;;3.25;;
71475;SDS011;59286;59.274;17.974;2023-08-12T01:11:35;6.75;;;2.70;;
71475;SDS011;59286;59.274;17.974;2023-08-12T01:14:12;11.77;;;3.67;;
71475;SDS011;59286;59.274;17.974;2023-08-12T01:16:44;9.30;;;3.30;;
71475;SDS011;59286;59.274;17.974;2023-08-12T01:19:28;7.30;;;2.50;;
71475;SDS011;59286;59.274;17.974;2023-08-12T01:21:59;9.07;;;3.50;;
71475;SDS011;59286;59.274;17.974;2023-08-12T01:24:36;6.88;;;2.72;;
71475;SDS011;59286;59.274;17.974;2023-08-12T01:27:02;10.73;;;3.42;;
71475;SDS011;59286;59.274;17.974;2023-08-12T01:29:28;13.32;;;4.28;;
71475;SDS011;59286;59.274;17.974;2023-08-12T01:31:58;10.05;;;3.70;;
71475;SDS011;59286;59.274;17.974;2023-08-12T01:34:37;12.75;;;3.38;;
71475;SDS011;59286;59.274;17.974;2023-08-12T01:37:08;10.13;;;2.75;;
71475;SDS011;59286;59.274;17.974;2023-08-12T01:39:35;12.77;;;3.15;;
71475;SDS011;59286;59.274;17.974;2023-08-12T01:42:01;9.40;;;3.00;;
71475;SDS011;59286;59.274;17.974;2023-08-12T01:44:27;10.93;;;3.85;;
71475;SDS011;59286;59.274;17.974;2023-08-12T01:46:53;6.57;;;2.67;;
71475;SDS011;59286;59.274;17.974;2023-08-12T01:49:18;9.07;;;2.75;;
71475;SDS011;59286;59.274;17.974;2023-08-12T01:51:44;10.32;;;2.90;;
71475;SDS011;59286;59.274;17.974;2023-08-12T01:54:09;12.45;;;3.60;;
71475;SDS011;59286;59.274;17.974;2023-08-12T01:56:35;9.07;;;2.58;;
71475;SDS011;59286;59.274;17.974;2023-08-12T01:59:00;6.45;;;2.92;;
71475;SDS011;59286;59.274;17.974;2023-08-12T02:01:25;8.77;;;3.25;;
71475;SDS011;59286;59.274;17.974;2023-08-12T02:03:51;5.72;;;2.60;;
71475;SDS011;59286;59.274;17.974;2023-08-12T02:06:16;5.70;;;2.53;;
71475;SDS011;59286;59.274;17.974;2023-08-12T02:08:41;14.27;;;3.60;;
71475;SDS011;59286;59.274;17.974;2023-08-12T02:11:07;15.18;;;3.75;;
71475;SDS011;59286;59.274;17.974;2023-08-12T02:13:32;11.75;;;3.35;;
71475;SDS011;59286;59.274;17.974;2023-08-12T02:15:57;10.27;;;3.33;;
71475;SDS011;59286;59.274;17.974;2023-08-12T02:18:23;6.53;;;2.75;;
71475;SDS011;59286;59.274;17.974;2023-08-12T02:20:48;9.27;;;2.60;;
71475;SDS011;59286;59.274;17.974;2023-08-12T02:23:13;6.60;;;2.40;;
71475;SDS011;59286;59.274;17.974;2023-08-12T02:25:39;6.40;;;2.22;;
71475;SDS011;59286;59.274;17.974;2023-08-12T02:28:04;8.93;;;3.05;;
71475;SDS011;59286;59.274;17.974;2023-08-12T02:30:30;10.38;;;2.33;;
71475;SDS011;59286;59.274;17.974;2023-08-12T02:32:55;6.20;;;2.60;;
71475;SDS011;59286;59.274;17.974;2023-08-12T02:35:21;6.97;;;2.10;;
71475;SDS011;59286;59.274;17.974;2023-08-12T02:37:47;10.73;;;2.90;;
71475;SDS011;59286;59.274;17.974;2023-08-12T02:40:13;6.95;;;2.55;;
71475;SDS011;59286;59.274;17.974;2023-08-12T02:42:39;8.52;;;3.22;;
71475;SDS011;59286;59.274;17.974;2023-08-12T02:45:04;8.55;;;3.55;;
71475;SDS011;59286;59.274;17.974;2023-08-12T02:47:30;5.15;;;2.35;;
71475;SDS011;59286;59.274;17.974;2023-08-12T02:49:55;6.78;;;2.72;;
71475;SDS011;59286;59.274;17.974;2023-08-12T02:52:21;8.85;;;2.47;;
71475;SDS011;59286;59.274;17.974;2023-08-12T02:54:46;6.25;;;2.65;;
71475;SDS011;59286;59.274;17.974;2023-08-12T02:57:11;13.82;;;3.58;;
71475;SDS011;59286;59.274;17.974;2023-08-12T02:59:37;5.18;;;2.60;;
71475;SDS011;59286;59.274;17.974;2023-08-12T03:02:02;4.68;;;2.40;;
71475;SDS011;59286;59.274;17.974;2023-08-12T03:04:28;4.95;;;2.47;;
71475;SDS011;59286;59.274;17.974;2023-08-12T03:06:54;8.10;;;2.55;;
71475;SDS011;59286;59.274;17.974;2023-08-12T03:09:19;6.20;;;3.05;;
71475;SDS011;59286;59.274;17.974;2023-08-12T03:11:45;6.85;;;2.67;;
71475;SDS011;59286;59.274;17.974;2023-08-12T03:14:11;8.50;;;2.63;;
71475;SDS011;59286;59.274;17.974;2023-08-12T03:16:36;12.05;;;3.58;;
71475;SDS011;59286;59.274;17.974;2023-08-12T03:19:02;9.63;;;3.60;;
71475;SDS011;59286;59.274;17.974;2023-08-12T03:21:27;7.47;;;3.35;;
71475;SDS011;59286;59.274;17.974;2023-08-12T03:23:53;7.45;;;2.90;;
71475;SDS011;59286;59.274;17.974;2023-08-12T03:26:19;10.93;;;3.35;;
71475;SDS011;59286;59.274;17.974;2023-08-12T03:28:44;7.15;;;2.72;;
71475;SDS011;59286;59.274;17.974;2023-08-12T03:31:09;6.53;;;2.63;;
71475;SDS011;59286;59.274;17.974;2023-08-12T03:33:35;5.60;;;2.20;;
71475;SDS011;59286;59.274;17.974;2023-08-12T03:36:00;6.63;;;2.30;;
71475;SDS011;59286;59.274;17.974;2023-08-12T03:38:25;8.25;;;2.92;;
71475;SDS011;59286;59.274;17.974;2023-08-12T03:40:51;6.82;;;2.70;;
71475;SDS011;59286;59.274;17.974;2023-08-12T03:43:16;7.20;;;2.40;;
71475;SDS011;59286;59.274;17.974;2023-08-12T03:45:42;6.82;;;2.35;;
71475;SDS011;59286;59.274;17.974;2023-08-12T03:48:08;8.57;;;2.35;;
71475;SDS011;59286;59.274;17.974;2023-08-12T03:50:34;7.75;;;2.40;;
71475;SDS011;59286;59.274;17.974;2023-08-12T03:53:00;5.45;;;2.35;;
71475;SDS011;59286;59.274;17.974;2023-08-12T03:55:26;5.03;;;2.05;;
71475;SDS011;59286;59.274;17.974;2023-08-12T03:57:51;8.43;;;3.47;;
71475;SDS011;59286;59.274;17.974;2023-08-12T04:00:17;10.45;;;4.70;;
71475;SDS011;59286;59.274;17.974;2023-08-12T04:02:42;8.98;;;4.70;;
71475;SDS011;59286;59.274;17.974;2023-08-12T04:05:08;14.65;;;6.35;;
71475;SDS011;59286;59.274;17.974;2023-08-12T04:07:35;12.98;;;6.30;;
71475;SDS011;59286;59.274;17.974;2023-08-12T04:10:02;11.70;;;5.82;;
71475;SDS011;59286;59.274;17.974;2023-08-12T04:12:27;13.25;;;6.03;;
71475;SDS011;59286;59.274;17.974;2023-08-12T04:14:53;12.57;;;5.15;;
71475;SDS011;59286;59.274;17.974;2023-08-12T04:17:18;10.50;;;5.05;;
71475;SDS011;59286;59.274;17.974;2023-08-12T04:19:43;9.85;;;4.47;;
71475;SDS011;59286;59.274;17.974;2023-08-12T04:22:09;8.00;;;3.25;;
71475;SDS011;59286;59.274;17.974;2023-08-12T04:24:34;6.90;;;2.97;;
71475;SDS011;59286;59.274;17.974;2023-08-12T04:27:00;6.60;;;2.83;;
71475;SDS011;59286;59.274;17.974;2023-08-12T04:29:25;6.65;;;2.10;;
71475;SDS011;59286;59.274;17.974;2023-08-12T04:31:50;4.43;;;1.90;;
71475;SDS011;59286;59.274;17.974;2023-08-12T04:34:18;8.60;;;2.10;;
71475;SDS011;59286;59.274;17.974;2023-08-12T04:36:43;4.70;;;2.25;;
71475;SDS011;59286;59.274;17.974;2023-08-12T04:39:09;5.13;;;1.80;;
71475;SDS011;59286;59.274;17.974;2023-08-12T04:41:35;5.03;;;1.55;;
71475;SDS011;59286;59.274;17.974;2023-08-12T04:44:00;4.53;;;1.70;;
71475;SDS011;59286;59.274;17.974;2023-08-12T04:46:26;6.78;;;1.60;;
71475;SDS011;59286;59.274;17.974;2023-08-12T04:48:51;4.97;;;1.70;;
71475;SDS011;59286;59.274;17.974;2023-08-12T04:51:17;6.78;;;1.75;;
71475;SDS011;59286;59.274;17.974;2023-08-12T04:53:42;5.60;;;1.40;;
71475;SDS011;59286;59.274;17.974;2023-08-12T04:56:07;3.00;;;1.55;;
71475;SDS011;59286;59.274;17.974;2023-08-12T04:58:33;4.72;;;1.67;;
71475;SDS011;59286;59.274;17.974;2023-08-12T05:00:58;3.38;;;1.70;;
71475;SDS011;59286;59.274;17.974;2023-08-12T05:03:25;3.55;;;1.23;;
71475;SDS011;59286;59.274;17.974;2023-08-12T05:05:51;3.47;;;1.40;;
71475;SDS011;59286;59.274;17.974;2023-08-12T05:08:17;3.25;;;1.10;;
71475;SDS011;59286;59.274;17.974;2023-08-12T05:10:43;3.72;;;1.30;;
71475;SDS011;59286;59.274;17.974;2023-08-12T05:13:08;4.75;;;1.30;;
71475;SDS011;59286;59.274;17.974;2023-08-12T05:15:34;5.88;;;1.20;;
71475;SDS011;59286;59.274;17.974;2023-08-12T05:18:01;3.30;;;0.85;;
71475;SDS011;59286;59.274;17.974;2023-08-12T05:20:27;3.20;;;1.10;;
71475;SDS011;59286;59.274;17.974;2023-08-12T05:22:53;3.33;;;1.20;;
71475;SDS011;59286;59.274;17.974;2023-08-12T05:25:18;4.60;;;1.63;;
71475;SDS011;59286;59.274;17.974;2023-08-12T05:27:43;3.33;;;1.10;;
71475;SDS011;59286;59.274;17.974;2023-08-12T05:30:09;3.10;;;1.05;;
71475;SDS011;59286;59.274;17.974;2023-08-12T05:32:35;4.13;;;0.82;;
71475;SDS011;59286;59.274;17.974;2023-08-12T05:35:00;3.33;;;1.35;;
71475;SDS011;59286;59.274;17.974;2023-08-12T05:37:25;7.35;;;1.13;;
71475;SDS011;59286;59.274;17.974;2023-08-12T05:39:51;5.65;;;1.30;;
71475;SDS011;59286;59.274;17.974;2023-08-12T05:42:16;4.93;;;1.23;;
71475;SDS011;59286;59.274;17.974;2023-08-12T05:44:41;3.03;;;1.05;;
71475;SDS011;59286;59.274;17.974;2023-08-12T05:47:07;4.15;;;1.00;;
71475;SDS011;59286;59.274;17.974;2023-08-12T05:49:33;3.45;;;1.00;;
71475;SDS011;59286;59.274;17.974;2023-08-12T05:51:58;2.10;;;0.60;;
71475;SDS011;59286;59.274;17.974;2023-08-12T05:54:23;5.82;;;1.25;;
71475;SDS011;59286;59.274;17.974;2023-08-12T05:56:48;3.22;;;0.90;;
71475;SDS011;59286;59.274;17.974;2023-08-12T05:59:14;1.77;;;0.82;;
71475;SDS011;59286;59.274;17.974;2023-08-12T06:01:39;2.80;;;0.70;;
71475;SDS011;59286;59.274;17.974;2023-08-12T06:04:04;3.38;;;0.90;;
71475;SDS011;59286;59.274;17.974;2023-08-12T06:06:30;2.15;;;0.90;;
71475;SDS011;59286;59.274;17.974;2023-08-12T06:08:55;6.18;;;1.17;;
71475;SDS011;59286;59.274;17.974;2023-08-12T06:11:21;3.10;;;1.00;;
71475;SDS011;59286;59.274;17.974;2023-08-12T06:13:46;2.20;;;1.00;;
71475;SDS011;59286;59.274;17.974;2023-08-12T06:16:11;6.15;;;0.90;;
71475;SDS011;59286;59.274;17.974;2023-08-12T06:18:37;5.60;;;0.90;;
71475;SDS011;59286;59.274;17.974;2023-08-12T06:21:02;2.75;;;0.95;;
71475;SDS011;59286;59.274;17.974;2023-08-12T06:23:27;5.75;;;1.05;;
71475;SDS011;59286;59.274;17.974;2023-08-12T06:25:53;3.25;;;0.90;;
71475;SDS011;59286;59.274;17.974;2023-08-12T06:28:18;4.40;;;1.00;;
71475;SDS011;59286;59.274;17.974;2023-08-12T06:30:47;3.08;;;0.80;;
71475;SDS011;59286;59.274;17.974;2023-08-12T06:33:13;3.72;;;1.15;;
71475;SDS011;59286;59.274;17.974;2023-08-12T06:35:39;2.70;;;0.70;;
71475;SDS011;59286;59.274;17.974;2023-08-12T06:38:05;5.50;;;0.80;;
71475;SDS011;59286;59.274;17.974;2023-08-12T06:40:30;4.05;;;1.20;;
71475;SDS011;59286;59.274;17.974;2023-08-12T06:42:55;2.15;;;0.85;;
71475;SDS011;59286;59.274;17.974;2023-08-12T06:45:21;3.40;;;0.93;;
71475;SDS011;59286;59.274;17.974;2023-08-12T06:47:46;5.20;;;0.95;;
71475;SDS011;59286;59.274;17.974;2023-08-12T06:50:11;4.38;;;1.15;;
71475;SDS011;59286;59.274;17.974;2023-08-12T06:52:37;3.85;;;1.05;;
71475;SDS011;59286;59.274;17.974;2023-08-12T06:55:02;6.28;;;1.00;;
71475;SDS011;59286;59.274;17.974;2023-08-12T06:57:28;3.30;;;1.00;;
71475;SDS011;59286;59.274;17.974;2023-08-12T06:59:53;3.40;;;0.88;;
71475;SDS011;59286;59.274;17.974;2023-08-12T07:02:18;2.65;;;1.00;;
71475;SDS011;59286;59.274;17.974;2023-08-12T07:04:44;2.83;;;0.77;;
71475;SDS011;59286;59.274;17.974;2023-08-12T07:07:09;3.05;;;0.90;;
71475;SDS011;59286;59.274;17.974;2023-08-12T07:09:34;2.40;;;1.15;;
71475;SDS011;59286;59.274;17.974;2023-08-12T07:12:00;3.17;;;0.90;;
71475;SDS011;59286;59.274;17.974;2023-08-12T07:14:26;6.03;;;0.90;;
71475;SDS011;59286;59.274;17.974;2023-08-12T07:16:53;2.83;;;0.95;;
71475;SDS011;59286;59.274;17.974;2023-08-12T07:19:18;2.60;;;0.95;;
71475;SDS011;59286;59.274;17.974;2023-08-12T07:21:44;3.95;;;1.00;;
71475;SDS011;59286;59.274;17.974;2023-08-12T07:24:09;3.97;;;0.90;;
71475;SDS011;59286;59.274;17.974;2023-08-12T07:26:34;2.63;;;0.80;;
71475;SDS011;59286;59.274;17.974;2023-08-12T07:29:00;4.93;;;1.10;;
71475;SDS011;59286;59.274;17.974;2023-08-12T07:31:25;3.92;;;1.00;;
71475;SDS011;59286;59.274;17.974;2023-08-12T07:33:50;2.83;;;0.80;;
71475;SDS011;59286;59.274;17.974;2023-08-12T07:36:15;7.60;;;1.00;;
71475;SDS011;59286;59.274;17.974;2023-08-12T07:38:41;6.55;;;1.38;;
71475;SDS011;59286;59.274;17.974;2023-08-12T07:41:06;2.67;;;0.80;;
71475;SDS011;59286;59.274;17.974;2023-08-12T07:43:32;5.47;;;0.88;;
71475;SDS011;59286;59.274;17.974;2023-08-12T07:45:57;4.47;;;1.20;;
71475;SDS011;59286;59.274;17.974;2023-08-12T07:48:23;7.13;;;1.38;;
71475;SDS011;59286;59.274;17.974;2023-08-12T07:50:54;4.28;;;0.95;;
71475;SDS011;59286;59.274;17.974;2023-08-12T07:53:23;4.18;;;1.00;;
71475;SDS011;59286;59.274;17.974;2023-08-12T07:55:49;3.08;;;1.00;;
71475;SDS011;59286;59.274;17.974;2023-08-12T07:58:14;5.45;;;0.95;;
71475;SDS011;59286;59.274;17.974;2023-08-12T08:00:40;3.03;;;1.00;;
71475;SDS011;59286;59.274;17.974;2023-08-12T08:03:05;4.63;;;1.10;;
71475;SDS011;59286;59.274;17.974;2023-08-12T08:05:31;5.80;;;1.17;;
71475;SDS011;59286;59.274;17.974;2023-08-12T08:07:56;5.28;;;1.35;;
71475;SDS011;59286;59.274;17.974;2023-08-12T08:10:22;2.85;;;0.93;;
71475;SDS011;59286;59.274;17.974;2023-08-12T08:12:47;3.17;;;0.93;;
71475;SDS011;59286;59.274;17.974;2023-08-12T08:15:12;3.67;;;1.10;;
71475;SDS011;59286;59.274;17.974;2023-08-12T08:17:38;4.68;;;0.90;;
71475;SDS011;59286;59.274;17.974;2023-08-12T08:20:03;5.75;;;1.05;;
71475;SDS011;59286;59.274;17.974;2023-08-12T08:22:30;3.60;;;1.30;;
71475;SDS011;59286;59.274;17.974;2023-08-12T08:24:56;4.05;;;1.05;;
71475;SDS011;59286;59.274;17.974;2023-08-12T08:27:21;2.63;;;0.90;;
71475;SDS011;59286;59.274;17.974;2023-08-12T08:29:46;2.53;;;1.05;;
71475;SDS011;59286;59.274;17.974;2023-08-12T08:32:12;3.53;;;1.42;;
71475;SDS011;59286;59.274;17.974;2023-08-12T08:34:37;3.80;;;1.10;;
71475;SDS011;59286;59.274;17.974;2023-08-12T08:37:02;4.32;;;0.90;;
71475;SDS011;59286;59.274;17.974;2023-08-12T08:39:28;3.80;;;1.08;;
71475;SDS011;59286;59.274;17.974;2023-08-12T08:41:54;3.45;;;1.08;;
71475;SDS011;59286;59.274;17.974;2023-08-12T08:44:21;2.85;;;0.73;;
71475;SDS011;59286;59.274;17.974;2023-08-12T08:46:49;4.28;;;1.10;;
71475;SDS011;59286;59.274;17.974;2023-08-12T08:49:16;3.28;;;0.80;;
71475;SDS011;59286;59.274;17.974;2023-08-12T08:51:43;2.70;;;0.90;;
71475;SDS011;59286;59.274;17.974;2023-08-12T08:54:11;3.83;;;1.17;;
71475;SDS011;59286;59.274;17.974;2023-08-12T08:56:37;5.25;;;1.05;;
71475;SDS011;59286;59.274;17.974;2023-08-12T08:59:03;3.92;;;1.02;;
71475;SDS011;59286;59.274;17.974;2023-08-12T09:01:29;4.28;;;1.08;;
71475;SDS011;59286;59.274;17.974;2023-08-12T09:03:56;3.70;;;1.08;;
71475;SDS011;59286;59.274;17.974;2023-08-12T09:06:24;2.13;;;0.75;;
71475;SDS011;59286;59.274;17.974;2023-08-12T09:08:54;3.30;;;0.95;;
71475;SDS011;59286;59.274;17.974;2023-08-12T09:11:20;2.95;;;1.15;;
71475;SDS011;59286;59.274;17.974;2023-08-12T09:13:46;3.95;;;1.13;;
71475;SDS011;59286;59.274;17.974;2023-08-12T09:16:13;2.10;;;1.00;;
71475;SDS011;59286;59.274;17.974;2023-08-12T09:18:40;2.95;;;1.00;;
71475;SDS011;59286;59.274;17.974;2023-08-12T09:21:08;3.28;;;1.00;;
71475;SDS011;59286;59.274;17.974;2023-08-12T09:23:34;3.17;;;1.10;;
71475;SDS011;59286;59.274;17.974;2023-08-12T09:26:01;3.05;;;0.90;;
71475;SDS011;59286;59.274;17.974;2023-08-12T09:28:27;6.72;;;0.90;;
71475;SDS011;59286;59.274;17.974;2023-08-12T09:30:52;2.22;;;0.95;;
71475;SDS011;59286;59.274;17.974;2023-08-12T09:33:18;3.97;;;1.08;;
71475;SDS011;59286;59.274;17.974;2023-08-12T09:35:50;4.15;;;1.15;;
71475;SDS011;59286;59.274;17.974;2023-08-12T09:38:15;4.57;;;1.10;;
71475;SDS011;59286;59.274;17.974;2023-08-12T09:40:40;4.18;;;1.10;;
71475;SDS011;59286;59.274;17.974;2023-08-12T09:43:06;2.97;;;1.20;;
71475;SDS011;59286;59.274;17.974;2023-08-12T09:45:33;1.98;;;0.88;;
71475;SDS011;59286;59.274;17.974;2023-08-12T09:48:00;5.32;;;1.08;;
71475;SDS011;59286;59.274;17.974;2023-08-12T09:50:25;3.38;;;0.80;;
71475;SDS011;59286;59.274;17.974;2023-08-12T09:52:52;4.38;;;0.90;;
71475;SDS011;59286;59.274;17.974;2023-08-12T09:55:19;3.53;;;1.13;;
71475;SDS011;59286;59.274;17.974;2023-08-12T09:57:52;8.30;;;1.30;;
71475;SDS011;59286;59.274;17.974;2023-08-12T10:00:19;2.17;;;1.00;;
71475;SDS011;59286;59.274;17.974;2023-08-12T10:02:46;3.25;;;1.10;;
71475;SDS011;59286;59.274;17.974;2023-08-12T10:05:30;1.58;;;0.75;;
71475;SDS011;59286;59.274;17.974;2023-08-12T10:07:57;6.15;;;1.05;;
71475;SDS011;59286;59.274;17.974;2023-08-12T10:10:23;1.67;;;0.90;;
71475;SDS011;59286;59.274;17.974;2023-08-12T10:12:50;5.35;;;1.00;;
71475;SDS011;59286;59.274;17.974;2023-08-12T10:15:15;3.50;;;1.00;;
71475;SDS011;59286;59.274;17.974;2023-08-12T10:17:41;2.50;;;0.95;;
71475;SDS011;59286;59.274;17.974;2023-08-12T10:20:07;5.30;;;1.10;;
71475;SDS011;59286;59.274;17.974;2023-08-12T10:22:34;1.85;;;0.90;;
71475;SDS011;59286;59.274;17.974;2023-08-12T10:25:04;5.70;;;1.17;;
71475;SDS011;59286;59.274;17.974;2023-08-12T10:27:33;5.50;;;1.10;;
71475;SDS011;59286;59.274;17.974;2023-08-12T10:29:58;3.70;;;1.02;;
71475;SDS011;59286;59.274;17.974;2023-08-12T10:32:24;3.33;;;1.10;;
71475;SDS011;59286;59.274;17.974;2023-08-12T10:34:54;4.65;;;0.98;;
71475;SDS011;59286;59.274;17.974;2023-08-12T10:37:20;5.68;;;1.10;;
71475;SDS011;59286;59.274;17.974;2023-08-12T10:39:46;2.55;;;0.93;;
71475;SDS011;59286;59.274;17.974;2023-08-12T10:42:11;1.88;;;0.85;;
71475;SDS011;59286;59.274;17.974;2023-08-12T10:44:40;3.38;;;1.13;;
71475;SDS011;59286;59.274;17.974;2023-08-12T10:47:19;2.05;;;0.93;;
71475;SDS011;59286;59.274;17.974;2023-08-12T10:49:48;2.35;;;1.17;;
71475;SDS011;59286;59.274;17.974;2023-08-12T10:52:51;2.47;;;0.93;;
71475;SDS011;59286;59.274;17.974;2023-08-12T10:55:16;3.67;;;1.00;;
71475;SDS011;59286;59.274;17.974;2023-08-12T10:57:50;2.55;;;1.10;;
71475;SDS011;59286;59.274;17.974;2023-08-12T11:00:23;2.93;;;0.93;;
71475;SDS011;59286;59.274;17.974;2023-08-12T11:02:51;2.95;;;1.42;;
71475;SDS011;59286;59.274;17.974;2023-08-12T11:05:17;3.95;;;0.80;;
71475;SDS011;59286;59.274;17.974;2023-08-12T11:07:56;4.13;;;0.85;;
71475;SDS011;59286;59.274;17.974;2023-08-12T11:10:23;2.55;;;0.95;;
71475;SDS011;59286;59.274;17.974;2023-08-12T11:15:16;3.27;;;1.17;;
71475;SDS011;59286;59.274;17.974;2023-08-12T11:17:41;3.28;;;1.00;;
71475;SDS011;59286;59.274;17.974;2023-08-12T11:20:08;4.10;;;0.98;;
71475;SDS011;59286;59.274;17.974;2023-08-12T11:22:36;2.58;;;1.00;;
71475;SDS011;59286;59.274;17.974;2023-08-12T11:25:06;2.78;;;0.90;;
71475;SDS011;59286;59.274;17.974;2023-08-12T11:27:43;3.13;;;0.80;;
71475;SDS011;59286;59.274;17.974;2023-08-12T11:30:16;2.75;;;0.60;;
71475;SDS011;59286;59.274;17.974;2023-08-12T11:32:43;2.85;;;0.85;;
71475;SDS011;59286;59.274;17.974;2023-08-12T11:35:11;2.10;;;0.90;;
71475;SDS011;59286;59.274;17.974;2023-08-12T11:37:38;2.03;;;1.00;;
71475;SDS011;59286;59.274;17.974;2023-08-12T11:40:05;2.20;;;0.82;;
71475;SDS011;59286;59.274;17.974;2023-08-12T11:42:33;1.92;;;0.90;;
71475;SDS011;59286;59.274;17.974;2023-08-12T11:44:59;2.65;;;0.90;;
71475;SDS011;59286;59.274;17.974;2023-08-12T11:47:25;2.95;;;0.80;;
71475;SDS011;59286;59.274;17.974;2023-08-12T11:49:52;2.38;;;1.05;;
71475;SDS011;59286;59.274;17.974;2023-08-12T11:52:18;3.22;;;0.85;;
71475;SDS011;59286;59.274;17.974;2023-08-12T11:54:44;3.53;;;0.98;;
71475;SDS011;59286;59.274;17.974;2023-08-12T11:57:09;4.18;;;1.10;;
71475;SDS011;59286;59.274;17.974;2023-08-12T11:59:35;4.20;;;1.00;;
71475;SDS011;59286;59.274;17.974;2023-08-12T12:02:01;4.25;;;0.93;;
71475;SDS011;59286;59.274;17.974;2023-08-12T12:04:27;2.28;;;0.80;;
71475;SDS011;59286;59.274;17.974;2023-08-12T12:06:53;5.47;;;1.00;;
71475;SDS011;59286;59.274;17.974;2023-08-12T12:09:18;2.00;;;0.90;;
71475;SDS011;59286;59.274;17.974;2023-08-12T12:11:45;2.45;;;0.90;;
71475;SDS011;59286;59.274;17.974;2023-08-12T12:14:10;2.95;;;1.20;;
71475;SDS011;59286;59.274;17.974;2023-08-12T12:16:40;3.50;;;0.80;;
71475;SDS011;59286;59.274;17.974;2023-08-12T12:19:17;1.60;;;0.90;;
71475;SDS011;59286;59.274;17.974;2023-08-12T12:21:46;2.05;;;1.02;;
71475;SDS011;59286;59.274;17.974;2023-08-12T12:24:16;3.17;;;1.25;;
71475;SDS011;59286;59.274;17.974;2023-08-12T12:26:43;5.45;;;1.13;;
71475;SDS011;59286;59.274;17.974;2023-08-12T12:29:09;2.88;;;1.00;;
71475;SDS011;59286;59.274;17.974;2023-08-12T12:31:36;3.13;;;0.93;;
71475;SDS011;59286;59.274;17.974;2023-08-12T12:34:02;1.30;;;1.00;;
71475;SDS011;59286;59.274;17.974;2023-08-12T12:36:31;2.88;;;1.00;;
71475;SDS011;59286;59.274;17.974;2023-08-12T12:38:58;1.45;;;0.80;;
71475;SDS011;59286;59.274;17.974;2023-08-12T12:41:24;2.80;;;1.10;;
71475;SDS011;59286;59.274;17.974;2023-08-12T12:43:49;2.45;;;1.10;;
71475;SDS011;59286;59.274;17.974;2023-08-12T12:46:15;3.13;;;1.10;;
71475;SDS011;59286;59.274;17.974;2023-08-12T12:48:41;1.85;;;1.02;;
71475;SDS011;59286;59.274;17.974;2023-08-12T12:51:10;3.05;;;1.00;;
71475;SDS011;59286;59.274;17.974;2023-08-12T12:53:37;3.72;;;1.15;;
71475;SDS011;59286;59.274;17.974;2023-08-12T12:56:02;2.72;;;1.08;;
71475;SDS011;59286;59.274;17.974;2023-08-12T12:58:35;3.15;;;1.00;;
71475;SDS011;59286;59.274;17.974;2023-08-12T13:01:02;1.83;;;0.93;;
71475;SDS011;59286;59.274;17.974;2023-08-12T13:03:29;3.88;;;1.10;;
71475;SDS011;59286;59.274;17.974;2023-08-12T13:05:55;2.45;;;1.00;;
71475;SDS011;59286;59.274;17.974;2023-08-12T13:08:21;2.83;;;1.10;;
71475;SDS011;59286;59.274;17.974;2023-08-12T13:10:46;3.13;;;1.02;;
71475;SDS011;59286;59.274;17.974;2023-08-12T13:13:14;3.60;;;1.05;;
71475;SDS011;59286;59.274;17.974;2023-08-12T13:15:43;2.47;;;0.98;;
71475;SDS011;59286;59.274;17.974;2023-08-12T13:18:09;2.25;;;1.10;;
71475;SDS011;59286;59.274;17.974;2023-08-12T13:20:35;3.88;;;1.10;;
71475;SDS011;59286;59.274;17.974;2023-08-12T13:23:01;2.63;;;1.00;;
71475;SDS011;59286;59.274;17.974;2023-08-12T13:25:30;3.63;;;0.90;;
71475;SDS011;59286;59.274;17.974;2023-08-12T13:27:58;2.13;;;1.02;;
71475;SDS011;59286;59.274;17.974;2023-08-12T13:30:23;2.17;;;0.93;;
71475;SDS011;59286;59.274;17.974;2023-08-12T13:32:49;2.47;;;1.00;;
71475;SDS011;59286;59.274;17.974;2023-08-12T13:35:14;2.42;;;1.00;;
71475;SDS011;59286;59.274;17.974;2023-08-12T13:37:39;3.08;;;1.00;;
71475;SDS011;59286;59.274;17.974;2023-08-12T13:40:05;1.65;;;1.00;;
71475;SDS011;59286;59.274;17.974;2023-08-12T13:42:31;3.83;;;1.20;;
71475;SDS011;59286;59.274;17.974;2023-08-12T13:44:56;3.97;;;0.90;;
71475;SDS011;59286;59.274;17.974;2023-08-12T13:47:22;2.78;;;1.02;;
71475;SDS011;59286;59.274;17.974;2023-08-12T13:49:47;2.80;;;0.80;;
71475;SDS011;59286;59.274;17.974;2023-08-12T13:52:12;3.42;;;0.85;;
71475;SDS011;59286;59.274;17.974;2023-08-12T13:54:38;2.03;;;0.88;;
71475;SDS011;59286;59.274;17.974;2023-08-12T13:57:03;3.22;;;0.82;;
71475;SDS011;59286;59.274;17.974;2023-08-12T13:59:29;2.83;;;1.30;;
71475;SDS011;59286;59.274;17.974;2023-08-12T14:01:54;2.35;;;1.10;;
71475;SDS011;59286;59.274;17.974;2023-08-12T14:04:20;2.38;;;0.90;;
71475;SDS011;59286;59.274;17.974;2023-08-12T14:06:45;1.05;;;0.80;;
71475;SDS011;59286;59.274;17.974;2023-08-12T14:09:11;1.50;;;0.80;;
71475;SDS011;59286;59.274;17.974;2023-08-12T14:11:38;7.63;;;1.10;;
71475;SDS011;59286;59.274;17.974;2023-08-12T14:14:04;5.60;;;1.10;;
71475;SDS011;59286;59.274;17.974;2023-08-12T14:16:29;4.18;;;1.00;;
71475;SDS011;59286;59.274;17.974;2023-08-12T14:18:54;3.40;;;0.80;;
71475;SDS011;59286;59.274;17.974;2023-08-12T14:27:06;1.80;;;0.75;;
71475;SDS011;59286;59.274;17.974;2023-08-12T14:29:32;2.85;;;0.90;;
71475;SDS011;59286;59.274;17.974;2023-08-12T14:31:57;7.05;;;0.90;;
71475;SDS011;59286;59.274;17.974;2023-08-12T14:34:23;1.42;;;0.80;;
71475;SDS011;59286;59.274;17.974;2023-08-12T14:36:48;1.52;;;0.70;;